Time;durP1;ratioP1;P1;durP2;ratioP2;P2;SDS_P1;SDS_P2;PMS_P1;PMS_P2;Temp;Humidity;BMP_temperature;BMP_pressure;BME280_temperature;BME280_humidity;BME280_pressure;Samples;Min_cycle;Max_cycle;Signal;HPM_P1;HPM_P2
2022/10/29 00:00:32;;;;;;;10.15;6.85;;;;;;;11.32;85.13;101661.13;5012122;28;20059;-68
2022/10/29 00:02:57;;;;;;;11.75;6.65;;;;;;;11.45;85.69;101671.31;5029554;28;20038;-68
2022/10/29 00:05:23;;;;;;;8.68;6.22;;;;;;;11.56;85.13;101677.00;5029776;28;20036;-68
2022/10/29 00:07:49;;;;;;;9.95;6.07;;;;;;;11.66;83.79;101678.38;5031609;28;20029;-68
2022/10/29 00:10:14;;;;;;;9.43;6.10;;;;;;;11.64;82.91;101682.63;5033312;28;20025;-67
2022/10/29 00:12:40;;;;;;;8.70;5.85;;;;;;;11.60;82.55;101672.91;5033975;28;20028;-67
2022/10/29 00:15:06;;;;;;;10.48;6.05;;;;;;;11.57;81.70;101671.03;5033653;28;20030;-67
2022/10/29 00:17:33;;;;;;;14.15;6.28;;;;;;;11.52;80.90;101656.97;5033416;28;20053;-67
2022/10/29 00:19:58;;;;;;;12.55;6.43;;;;;;;11.56;80.53;101670.97;5033517;28;20032;-67
2022/10/29 00:22:24;;;;;;;14.60;7.95;;;;;;;10.84;83.29;101588.78;5033315;28;20100;-67
2022/10/29 00:24:49;;;;;;;16.05;10.63;;;;;;;11.16;85.62;101662.91;5033169;28;20112;-67
2022/10/29 00:27:14;;;;;;;16.58;11.13;;;;;;;11.09;86.84;101673.69;5033121;28;20454;-67
2022/10/29 00:29:40;;;;;;;16.98;11.55;;;;;;;10.91;88.31;101660.66;5033086;28;20030;-68
2022/10/29 00:32:05;;;;;;;15.70;11.63;;;;;;;10.95;88.91;101669.47;5015429;28;20084;-66
2022/10/29 00:34:31;;;;;;;17.17;11.05;;;;;;;10.40;89.21;101571.75;5032953;28;20036;-66
2022/10/29 00:36:56;;;;;;;16.60;11.90;;;;;;;10.98;89.47;101667.94;5032971;28;20037;-66
2022/10/29 00:39:22;;;;;;;18.33;12.45;;;;;;;10.97;89.47;101666.16;5032810;28;20025;-66
2022/10/29 00:41:47;;;;;;;22.80;12.15;;;;;;;10.97;89.20;101668.75;5032962;28;20083;-66
2022/10/29 00:44:21;;;;;;;16.30;12.20;;;;;;;10.90;90.15;101670.91;5033067;28;20454;-67
2022/10/29 00:46:50;;;;;;;16.02;11.65;;;;;;;10.74;91.04;101657.16;5033072;28;20026;-67
2022/10/29 00:49:17;;;;;;;19.10;13.90;;;;;;;10.76;91.17;101650.38;5032739;28;20037;-67
2022/10/29 00:51:45;;;;;;;18.77;12.32;;;;;;;10.64;90.98;101655.75;5032668;28;20295;-67
2022/10/29 00:54:13;;;;;;;18.02;11.75;;;;;;;10.58;91.39;101645.09;5032996;28;20026;-67
2022/10/29 00:57:19;;;;;;;15.63;11.27;;;;;;;10.55;91.51;101664.69;5032311;28;20419;-66
2022/10/29 00:59:47;;;;;;;18.83;12.50;;;;;;;10.32;92.64;101649.63;4932664;29;20032;-66
2022/10/29 01:02:13;;;;;;;16.75;10.70;;;;;;;10.15;93.31;101648.66;4932621;29;20407;-66
2022/10/29 01:04:40;;;;;;;19.52;12.52;;;;;;;9.97;94.36;101632.09;4932647;29;20057;-66
2022/10/29 01:07:05;;;;;;;18.63;12.15;;;;;;;10.06;94.35;101657.56;4932720;29;20088;-67
2022/10/29 01:09:31;;;;;;;20.27;12.40;;;;;;;10.10;94.72;101647.50;4932694;29;20438;-66
2022/10/29 01:12:09;;;;;;;20.10;13.02;;;;;;;10.19;94.06;101649.72;4932903;29;20024;-66
2022/10/29 01:14:58;;;;;;;14.68;11.68;;;;;;;10.22;93.76;101641.25;4932489;29;20098;-67
2022/10/29 01:17:51;;;;;;;19.52;12.05;;;;;;;10.17;94.00;101630.69;4931040;29;20043;-67
2022/10/29 01:20:46;;;;;;;18.98;11.35;;;;;;;10.25;93.76;101649.19;4931526;29;20107;-67
2022/10/29 01:23:33;;;;;;;21.67;12.63;;;;;;;10.09;94.53;101648.28;4875707;29;20525;-66
2022/10/29 01:26:04;;;;;;;16.55;11.90;;;;;;;9.94;95.29;101650.88;4875697;29;20041;-66
2022/10/29 01:28:47;;;;;;;15.30;11.18;;;;;;;9.66;96.34;101602.84;4875767;29;20068;-67
2022/10/29 01:31:26;;;;;;;16.02;11.63;;;;;;;9.91;95.87;101647.25;4875559;29;20053;-67
2022/10/29 01:34:12;;;;;;;16.80;12.10;;;;;;;9.98;96.22;101650.28;4875598;29;20045;-67
2022/10/29 01:36:37;;;;;;;18.52;12.40;;;;;;;10.12;95.51;101652.75;4934068;29;20111;-66
2022/10/29 01:39:05;;;;;;;17.15;12.13;;;;;;;10.30;95.31;101642.59;4951327;29;20117;-67
2022/10/29 01:41:43;;;;;;;18.40;12.15;;;;;;;10.46;93.34;101645.28;4951317;29;20051;-67
2022/10/29 01:44:50;;;;;;;20.92;12.57;;;;;;;10.58;92.32;101639.00;4951223;29;20032;-67
2022/10/29 01:47:20;;;;;;;16.05;11.02;;;;;;;10.74;89.97;101633.00;4951246;29;20114;-67
2022/10/29 01:50:00;;;;;;;15.25;10.05;;;;;;;10.78;88.72;101627.19;4935059;29;20575;-67
2022/10/29 01:52:28;;;;;;;18.42;10.13;;;;;;;10.90;88.40;101622.69;4951220;29;20038;-67
2022/10/29 01:54:54;;;;;;;18.02;10.25;;;;;;;10.93;86.24;101627.13;4950936;29;20039;-67
2022/10/29 01:57:32;;;;;;;15.75;9.15;;;;;;;10.66;87.78;101635.19;4950956;29;20138;-67
2022/10/29 02:00:03;;;;;;;14.48;7.38;;;;;;;10.61;88.21;101634.03;4991091;28;20042;-67
2022/10/29 02:02:50;;;;;;;14.48;8.05;;;;;;;10.66;88.30;101630.00;5031147;28;20462;-67
2022/10/29 02:05:41;;;;;;;14.98;9.07;;;;;;;10.65;88.65;101636.88;5031443;28;20037;-66
2022/10/29 02:08:21;;;;;;;15.18;8.80;;;;;;;10.64;88.21;101636.78;5009142;28;20209;-67
2022/10/29 02:10:58;;;;;;;16.42;9.13;;;;;;;10.51;87.26;101601.66;5008891;28;20610;-66
2022/10/29 02:13:32;;;;;;;18.70;8.40;;;;;;;10.75;85.71;101633.09;5008866;28;20038;-67
2022/10/29 02:16:03;;;;;;;13.90;7.35;;;;;;;10.68;81.02;101637.03;5008927;28;20080;-67
2022/10/29 02:18:28;;;;;;;13.00;8.75;;;;;;;10.36;80.02;101591.34;5008888;28;20045;-67
2022/10/29 02:20:54;;;;;;;15.15;8.77;;;;;;;10.30;78.35;101599.59;5008802;28;20036;-67
2022/10/29 02:23:19;;;;;;;13.90;8.68;;;;;;;10.38;78.67;101636.22;5008636;28;20483;-67
2022/10/29 02:25:44;;;;;;;12.88;9.00;;;;;;;10.27;78.73;101629.50;5008616;28;20646;-67
2022/10/29 02:28:10;;;;;;;13.52;9.48;;;;;;;10.16;78.93;101634.06;5008827;28;20033;-67
2022/10/29 02:30:35;;;;;;;12.25;8.95;;;;;;;10.14;79.17;101628.84;5008400;28;20519;-68
2022/10/29 02:33:01;;;;;;;13.93;8.75;;;;;;;10.09;79.20;101617.34;5008907;28;20049;-67
2022/10/29 02:35:26;;;;;;;14.27;8.93;;;;;;;10.13;79.36;101634.78;5008666;28;20034;-67
2022/10/29 02:37:52;;;;;;;16.83;9.90;;;;;;;9.90;79.47;101584.44;5008122;28;20042;-67
2022/10/29 02:40:17;;;;;;;17.27;9.70;;;;;;;10.11;79.52;101623.47;5008404;28;20037;-67
2022/10/29 02:42:43;;;;;;;15.60;9.43;;;;;;;10.00;80.13;101621.97;5008692;28;20034;-67
2022/10/29 02:45:08;;;;;;;13.73;9.68;;;;;;;9.93;80.36;101619.84;5021533;28;20052;-67
2022/10/29 02:47:34;;;;;;;15.80;9.75;;;;;;;9.60;80.54;101581.84;5030390;28;20032;-68
2022/10/29 02:49:59;;;;;;;15.65;10.18;;;;;;;9.79;80.25;101622.50;5030536;28;20033;-67
2022/10/29 02:52:25;;;;;;;14.45;9.55;;;;;;;9.76;80.86;101621.41;5030329;28;20033;-67
2022/10/29 02:54:50;;;;;;;13.93;9.10;;;;;;;9.69;81.73;101630.50;5030525;28;20400;-68
2022/10/29 02:57:17;;;;;;;15.23;9.48;;;;;;;9.53;81.65;101611.56;5030668;28;20484;-68
2022/10/29 02:59:42;;;;;;;16.35;8.95;;;;;;;9.51;82.29;101623.44;5030901;28;20033;-67
2022/10/29 03:02:08;;;;;;;13.38;8.73;;;;;;;9.48;82.51;101625.84;5030897;28;20029;-68
2022/10/29 03:04:33;;;;;;;14.85;8.95;;;;;;;9.46;82.51;101627.44;5030750;28;20458;-67
2022/10/29 03:06:59;;;;;;;14.50;8.55;;;;;;;9.44;83.32;101621.28;5030571;28;20037;-68
2022/10/29 03:09:24;;;;;;;12.48;8.63;;;;;;;9.48;82.96;101625.84;4995316;28;20056;-68
2022/10/29 03:11:50;;;;;;;11.98;7.75;;;;;;;9.49;81.98;101626.72;5030780;28;20044;-68
2022/10/29 03:14:15;;;;;;;16.05;8.48;;;;;;;9.50;81.46;101629.41;5030642;28;20033;-67
2022/10/29 03:16:41;;;;;;;9.38;7.50;;;;;;;9.43;81.33;101619.50;4995506;28;20052;-68
2022/10/29 03:19:06;;;;;;;15.65;8.10;;;;;;;9.39;80.76;101617.56;5030538;28;20025;-68
2022/10/29 03:21:32;;;;;;;13.63;7.20;;;;;;;9.39;80.57;101620.13;5030819;28;20492;-68
2022/10/29 03:23:57;;;;;;;13.25;7.15;;;;;;;9.30;80.21;101624.75;5030621;28;20033;-68
2022/10/29 03:26:22;;;;;;;10.93;6.85;;;;;;;9.23;80.15;101614.06;5030572;28;20029;-67
2022/10/29 03:28:48;;;;;;;12.52;7.97;;;;;;;9.19;80.21;101617.22;5030299;28;20038;-68
2022/10/29 03:31:13;;;;;;;11.63;7.07;;;;;;;9.14;80.57;101616.06;5030335;28;20110;-68
2022/10/29 03:33:39;;;;;;;15.27;7.07;;;;;;;9.12;80.76;101616.75;5030229;28;20476;-68
2022/10/29 03:36:06;;;;;;;25.42;8.32;;;;;;;9.21;80.52;101595.03;5030301;28;20025;-69
2022/10/29 03:38:32;;;;;;;14.20;7.05;;;;;;;9.31;81.12;101611.94;5030212;28;20399;-69
2022/10/29 03:40:57;;;;;;;12.45;7.22;;;;;;;9.41;80.53;101610.81;5030620;28;20098;-68
2022/10/29 03:43:23;;;;;;;18.02;7.22;;;;;;;9.44;80.71;101616.13;5033081;28;20033;-68
2022/10/29 03:45:56;;;;;;;17.17;7.43;;;;;;;9.45;80.05;101614.47;5034215;28;20033;-68
2022/10/29 03:48:23;;;;;;;13.80;6.80;;;;;;;9.39;79.31;101615.88;5034236;28;20548;-68
2022/10/29 03:50:56;;;;;;;14.23;6.70;;;;;;;9.27;80.21;101619.38;5034147;28;20070;-69
2022/10/29 03:53:23;;;;;;;25.15;8.65;;;;;;;8.89;82.05;101582.75;5016561;28;20029;-68
2022/10/29 03:55:50;;;;;;;27.95;10.38;;;;;;;8.67;83.71;101572.81;5034242;28;20041;-68
2022/10/29 03:58:15;;;;;;;37.92;10.90;;;;;;;8.80;86.71;101613.06;5034279;28;20021;-68
2022/10/29 04:00:41;;;;;;;45.28;12.48;;;;;;;8.54;89.90;101605.50;5034099;28;20108;-68
2022/10/29 04:03:06;;;;;;;46.03;11.98;;;;;;;8.54;92.05;101615.78;5033880;28;20025;-68
2022/10/29 04:05:32;;;;;;;56.45;11.63;;;;;;;8.38;94.59;101611.31;5033840;28;20103;-68
2022/10/29 04:07:57;;;;;;;46.45;10.85;;;;;;;8.33;96.14;101614.41;5033998;28;20108;-68
2022/10/29 04:10:24;;;;;;;33.38;10.25;;;;;;;8.31;96.26;101609.16;4998848;28;20063;-68
2022/10/29 04:12:50;;;;;;;34.05;9.98;;;;;;;7.84;96.33;101527.22;5016344;28;20487;-68
2022/10/29 04:15:15;;;;;;;35.88;12.05;;;;;;;8.33;97.38;101604.09;5033696;28;20032;-67
2022/10/29 04:17:41;;;;;;;41.83;12.27;;;;;;;7.93;97.47;101564.72;5033820;28;20599;-68
2022/10/29 04:20:06;;;;;;;57.30;13.23;;;;;;;8.11;98.74;101610.41;5033518;28;20380;-68
2022/10/29 04:22:32;;;;;;;40.65;11.50;;;;;;;7.97;99.05;101593.22;5033855;28;20017;-68
2022/10/29 04:24:57;;;;;;;32.50;12.23;;;;;;;7.97;98.86;101612.09;5027518;28;20087;-68
2022/10/29 04:27:23;;;;;;;40.13;11.30;;;;;;;7.87;99.45;101608.00;5029094;28;20026;-68
2022/10/29 04:29:48;;;;;;;38.50;11.75;;;;;;;7.83;100.00;101605.16;4996028;28;20057;-68
2022/10/29 04:32:13;;;;;;;41.97;12.75;;;;;;;7.39;100.00;101567.97;5013904;28;20050;-68
2022/10/29 04:34:39;;;;;;;46.70;13.88;;;;;;;7.49;100.00;101602.88;5026374;28;20069;-68
2022/10/29 04:37:04;;;;;;;45.67;13.43;;;;;;;7.39;100.00;101614.22;5020725;28;20126;-69
2022/10/29 04:39:30;;;;;;;47.15;13.98;;;;;;;7.29;100.00;101613.59;5013746;28;20025;-69
2022/10/29 04:41:55;;;;;;;43.95;13.10;;;;;;;7.16;100.00;101617.78;5026955;28;20118;-71
2022/10/29 04:44:20;;;;;;;50.60;15.30;;;;;;;7.07;100.00;101618.03;5032048;28;20104;-70
2022/10/29 04:46:46;;;;;;;45.53;14.32;;;;;;;7.06;100.00;101593.13;5033278;28;20045;-70
2022/10/29 04:49:12;;;;;;;41.30;13.57;;;;;;;7.23;100.00;101614.88;5032917;28;20025;-70
2022/10/29 04:51:37;;;;;;;40.13;14.07;;;;;;;7.29;100.00;101616.16;5014099;28;20036;-69
2022/10/29 04:54:03;;;;;;;39.03;14.98;;;;;;;7.40;100.00;101606.63;4996132;28;20088;-70
2022/10/29 04:56:29;;;;;;;49.83;17.40;;;;;;;7.53;100.00;101613.47;5033154;28;20116;-69
2022/10/29 04:58:55;;;;;;;65.22;20.20;;;;;;;7.72;100.00;101618.16;5015408;28;20033;-69
2022/10/29 05:01:20;;;;;;;68.07;19.60;;;;;;;7.82;100.00;101614.53;5033468;28;20033;-69
2022/10/29 05:03:46;;;;;;;72.53;20.98;;;;;;;7.97;100.00;101614.66;5033217;28;20488;-69
2022/10/29 05:06:11;;;;;;;105.90;33.08;;;;;;;8.03;100.00;101606.47;5033536;28;20033;-69
2022/10/29 05:08:37;;;;;;;126.57;55.13;;;;;;;8.21;100.00;101614.47;5033255;28;20464;-69
2022/10/29 05:11:05;;;;;;;149.30;60.63;;;;;;;8.45;100.00;101616.84;5033164;28;20068;-69
2022/10/29 05:13:31;;;;;;;141.80;54.53;;;;;;;8.60;100.00;101628.19;5032769;28;20472;-69
2022/10/29 05:15:57;;;;;;;160.77;53.97;;;;;;;8.72;100.00;101628.06;5032918;28;20084;-69
2022/10/29 05:18:25;;;;;;;114.78;43.83;;;;;;;8.80;100.00;101621.72;5026482;28;20037;-69
2022/10/29 05:20:54;;;;;;;132.27;38.83;;;;;;;8.93;100.00;101633.66;5032822;28;20033;-69
2022/10/29 05:23:20;;;;;;;123.90;40.42;;;;;;;9.00;100.00;101625.53;5029913;28;20060;-69
2022/10/29 05:25:50;;;;;;;125.15;38.55;;;;;;;9.07;100.00;101639.66;5029033;28;20030;-70
2022/10/29 05:28:19;;;;;;;;;;;;;;;9.03;100.00;101637.69;5032486;28;20075;-70
2022/10/29 05:30:46;;;;;;;87.78;27.33;;;;;;;8.92;100.00;101646.44;5031946;28;19919;-69
2022/10/29 05:33:15;;;;;;;82.95;22.08;;;;;;;8.58;100.00;101592.06;5017331;28;20479;-69
2022/10/29 05:35:41;;;;;;;72.20;20.75;;;;;;;8.65;100.00;101603.63;5012354;28;20408;-69
2022/10/29 05:38:07;;;;;;;56.30;18.42;;;;;;;8.84;100.00;101656.28;5012320;28;20088;-69
2022/10/29 05:40:32;;;;;;;52.33;20.15;;;;;;;8.80;100.00;101649.13;5012567;28;20030;-69
2022/10/29 05:42:58;;;;;;;69.18;18.88;;;;;;;8.70;100.00;101650.25;5012067;28;20033;-69
2022/10/29 05:45:25;;;;;;;58.65;19.98;;;;;;;8.61;100.00;101647.06;5010683;28;20030;-69
2022/10/29 05:47:58;;;;;;;54.72;20.92;;;;;;;8.56;100.00;101639.06;5011969;28;20483;-68
2022/10/29 05:50:24;;;;;;;74.88;19.70;;;;;;;8.40;100.00;101612.31;5012096;28;20048;-69
2022/10/29 05:53:01;;;;;;;95.55;20.85;;;;;;;8.67;100.00;101661.25;5012116;28;20113;-69
2022/10/29 05:55:27;;;;;;;61.05;19.33;;;;;;;8.63;100.00;101654.09;5016967;28;20496;-69
2022/10/29 05:57:57;;;;;;;68.13;21.45;;;;;;;8.59;100.00;101662.44;5020947;28;20683;-68
2022/10/29 06:00:24;;;;;;;63.35;20.42;;;;;;;8.63;100.00;101660.94;5020250;28;20403;-69
2022/10/29 06:02:49;;;;;;;56.83;20.08;;;;;;;8.75;100.00;101661.72;5025562;28;20471;-68
2022/10/29 06:05:14;;;;;;;55.47;19.83;;;;;;;8.76;100.00;101660.03;5027361;28;20037;-68
2022/10/29 06:07:40;;;;;;;73.75;26.67;;;;;;;8.76;100.00;101662.59;5013345;28;20065;-68
2022/10/29 06:10:06;;;;;;;73.53;28.00;;;;;;;8.74;100.00;101673.69;4994314;28;20084;-68
2022/10/29 06:12:32;;;;;;;81.25;31.20;;;;;;;8.75;100.00;101664.31;5014561;28;20070;-68
2022/10/29 06:14:58;;;;;;;62.03;21.95;;;;;;;8.73;100.00;101671.03;5031420;28;20064;-68
2022/10/29 06:17:24;;;;;;;76.30;22.90;;;;;;;8.81;100.00;101667.28;5030371;28;20403;-68
2022/10/29 06:19:49;;;;;;;65.07;22.73;;;;;;;8.77;100.00;101669.53;5031445;28;20029;-68
2022/10/29 06:22:14;;;;;;;73.40;20.85;;;;;;;8.83;100.00;101669.94;5031241;28;20059;-68
2022/10/29 06:24:40;;;;;;;62.08;21.15;;;;;;;8.77;100.00;101661.81;5031370;28;20033;-68
2022/10/29 06:27:05;;;;;;;64.05;22.08;;;;;;;8.95;100.00;101675.88;5030899;28;20029;-69
2022/10/29 06:29:33;;;;;;;59.47;22.90;;;;;;;9.04;100.00;101672.97;5030879;28;20040;-69
2022/10/29 06:31:59;;;;;;;51.97;22.73;;;;;;;9.14;100.00;101680.47;5012960;28;20620;-69
2022/10/29 06:34:24;;;;;;;52.00;23.52;;;;;;;9.17;100.00;101660.06;5031190;28;20112;-69
2022/10/29 06:36:50;;;;;;;61.00;23.17;;;;;;;9.39;100.00;101676.84;5031155;28;20029;-69
2022/10/29 06:39:15;;;;;;;77.22;24.85;;;;;;;9.38;100.00;101678.53;5030809;28;20117;-69
2022/10/29 06:41:40;;;;;;;66.65;23.23;;;;;;;9.41;100.00;101669.19;5030717;28;20033;-69
2022/10/29 06:44:06;;;;;;;63.90;22.88;;;;;;;9.44;100.00;101683.16;5030964;28;20028;-69
2022/10/29 06:46:33;;;;;;;69.43;21.48;;;;;;;9.44;100.00;101685.72;5030791;28;20090;-69
2022/10/29 06:48:59;;;;;;;53.60;21.95;;;;;;;9.43;100.00;101681.38;5030701;28;20034;-69
2022/10/29 06:51:25;;;;;;;54.35;20.58;;;;;;;9.41;100.00;101669.19;5030543;28;20403;-69
2022/10/29 06:53:52;;;;;;;49.08;18.85;;;;;;;9.36;100.00;101668.94;5030582;28;20025;-69
2022/10/29 06:56:18;;;;;;;55.42;16.40;;;;;;;9.43;100.00;101681.38;5029627;28;20034;-69
2022/10/29 06:58:44;;;;;;;55.05;19.13;;;;;;;9.32;100.00;101669.50;5030475;28;20043;-69
2022/10/29 07:01:09;;;;;;;51.03;17.30;;;;;;;9.30;100.00;101677.16;5030818;28;20091;-69
2022/10/29 07:03:34;;;;;;;47.33;19.15;;;;;;;9.30;100.00;101677.16;5030780;28;20033;-69
2022/10/29 07:06:00;;;;;;;68.10;18.00;;;;;;;9.37;100.00;101674.16;5030135;28;20465;-69
2022/10/29 07:08:25;;;;;;;42.40;16.58;;;;;;;9.51;100.00;101674.13;5030564;28;20029;-68
2022/10/29 07:10:52;;;;;;;48.45;19.08;;;;;;;9.44;100.00;101639.34;5028077;28;20029;-69
2022/10/29 07:13:18;;;;;;;53.08;18.30;;;;;;;9.75;100.00;101676.41;5022434;28;20443;-69
2022/10/29 07:15:43;;;;;;;47.35;18.63;;;;;;;9.74;100.00;101670.34;5019482;28;20025;-69
2022/10/29 07:18:10;;;;;;;54.95;19.13;;;;;;;9.67;100.00;101647.56;5019414;28;20034;-69
2022/10/29 07:20:41;;;;;;;56.55;16.85;;;;;;;9.72;100.00;101635.84;5006541;28;20388;-69
2022/10/29 07:23:07;;;;;;;39.92;16.75;;;;;;;10.00;100.00;101679.59;5030341;28;20129;-69
2022/10/29 07:25:35;;;;;;;33.15;15.07;;;;;;;10.09;100.00;101689.56;5012493;28;20021;-68
2022/10/29 07:28:15;;;;;;;48.22;16.67;;;;;;;10.10;100.00;101683.63;5030389;28;20037;-68
2022/10/29 07:30:41;;;;;;;39.30;15.90;;;;;;;10.13;100.00;101682.91;4993586;28;20059;-69
2022/10/29 07:33:07;;;;;;;50.22;17.70;;;;;;;10.16;100.00;101683.97;5023526;28;20030;-69
2022/10/29 07:35:34;;;;;;;41.13;16.65;;;;;;;10.12;100.00;101645.00;5022887;28;20029;-69
2022/10/29 07:38:04;;;;;;;40.90;18.15;;;;;;;10.53;100.00;101687.84;5030078;28;20065;-68
2022/10/29 07:40:30;;;;;;;47.40;18.73;;;;;;;10.38;100.00;101646.56;5030188;28;20087;-68
2022/10/29 07:42:55;;;;;;;41.50;17.52;;;;;;;10.62;100.00;101679.72;5030173;28;20029;-68
2022/10/29 07:45:21;;;;;;;36.72;16.30;;;;;;;10.73;100.00;101677.72;5030481;28;20029;-68
2022/10/29 07:47:46;;;;;;;42.28;17.60;;;;;;;10.81;100.00;101681.63;5029992;28;20033;-68
2022/10/29 07:50:12;;;;;;;34.85;16.52;;;;;;;10.89;100.00;101682.03;5030166;28;20064;-69
2022/10/29 07:52:39;;;;;;;41.20;15.93;;;;;;;10.99;100.00;101686.91;5029827;28;20052;-68
2022/10/29 07:55:05;;;;;;;39.90;18.13;;;;;;;11.08;100.00;101690.00;5029818;28;20033;-68
2022/10/29 07:57:31;;;;;;;47.92;19.15;;;;;;;11.19;100.00;101687.09;5029782;28;20116;-68
2022/10/29 07:59:56;;;;;;;52.25;18.90;;;;;;;11.10;100.00;101683.25;5030139;28;20104;-68
2022/10/29 08:02:22;;;;;;;39.67;19.27;;;;;;;11.15;100.00;101680.88;4994207;28;20426;-68
2022/10/29 08:04:47;;;;;;;47.33;20.10;;;;;;;10.97;100.00;101629.09;5010081;28;20675;-69
2022/10/29 08:07:12;;;;;;;46.55;20.63;;;;;;;11.24;100.00;101670.16;5010253;28;20056;-69
2022/10/29 08:09:39;;;;;;;45.38;19.50;;;;;;;11.28;100.00;101667.81;5010372;28;20069;-69
2022/10/29 08:12:05;;;;;;;43.53;20.05;;;;;;;11.43;100.00;101670.31;5010753;28;20040;-69
2022/10/29 08:14:31;;;;;;;37.08;18.73;;;;;;;11.41;100.00;101671.94;4975789;28;20046;-69
2022/10/29 08:16:56;;;;;;;26.38;15.43;;;;;;;11.40;100.00;101671.84;5010168;28;20026;-69
2022/10/29 08:19:22;;;;;;;26.65;15.77;;;;;;;11.44;100.00;101677.28;5010356;28;20088;-68
2022/10/29 08:21:47;;;;;;;26.83;14.70;;;;;;;11.32;100.00;101633.56;5009870;28;20092;-69
2022/10/29 08:24:13;;;;;;;26.63;14.90;;;;;;;11.54;100.00;101670.00;5009885;28;20022;-69
2022/10/29 08:26:38;;;;;;;27.17;16.52;;;;;;;11.30;100.00;101617.09;5009860;28;20042;-69
2022/10/29 08:29:04;;;;;;;29.88;17.38;;;;;;;11.69;100.00;101660.47;5011559;28;20046;-69
2022/10/29 08:31:29;;;;;;;31.25;18.45;;;;;;;11.80;100.00;101659.31;5013839;28;20054;-69
2022/10/29 08:33:54;;;;;;;33.10;18.77;;;;;;;11.61;100.00;101605.75;5013426;28;20030;-68
2022/10/29 08:36:20;;;;;;;30.95;17.73;;;;;;;11.89;100.00;101663.19;5013305;28;20469;-69
2022/10/29 08:38:46;;;;;;;29.55;16.58;;;;;;;11.53;100.00;101583.78;5013703;28;20076;-69
2022/10/29 08:41:49;;;;;;;23.60;12.85;;;;;;;11.75;100.00;101613.28;5013477;28;20088;-69
2022/10/29 08:44:50;;;;;;;24.95;14.48;;;;;;;11.98;100.00;101654.19;5013261;28;20026;-69
2022/10/29 08:47:21;;;;;;;20.73;14.23;;;;;;;12.13;100.00;101650.59;5013315;28;20559;-69
2022/10/29 08:50:13;;;;;;;23.67;15.18;;;;;;;12.28;100.00;101650.47;5013268;28;20025;-68
2022/10/29 08:52:41;;;;;;;23.73;15.07;;;;;;;12.29;100.00;101645.34;5013056;28;20018;-68
2022/10/29 08:55:15;;;;;;;22.92;14.98;;;;;;;12.32;100.00;101618.72;5013199;28;20459;-69
2022/10/29 08:57:46;;;;;;;24.38;16.85;;;;;;;12.54;100.00;101632.72;5012822;28;20034;-69
2022/10/29 09:00:29;;;;;;;20.17;13.60;;;;;;;12.19;100.00;101598.25;5026621;28;20521;-69
2022/10/29 09:02:57;;;;;;;24.55;16.50;;;;;;;12.54;100.00;101627.53;5032783;28;20537;-69
2022/10/29 09:05:29;;;;;;;22.73;15.35;;;;;;;12.67;100.00;101622.09;5032464;28;20423;-69
2022/10/29 09:08:23;;;;;;;20.98;15.43;;;;;;;12.95;100.00;101613.91;5032700;28;20546;-69
2022/10/29 09:11:09;;;;;;;20.02;13.13;;;;;;;12.53;100.00;101569.66;5032593;28;20061;-69
2022/10/29 09:14:11;;;;;;;23.58;15.55;;;;;;;12.97;100.00;101613.97;5032603;28;20025;-69
2022/10/29 09:16:47;;;;;;;19.98;14.05;;;;;;;13.09;100.00;101617.13;5032816;28;20103;-69
2022/10/29 09:19:38;;;;;;;21.73;14.00;;;;;;;13.30;100.00;101611.13;5032488;28;20036;-68
2022/10/29 09:22:04;;;;;;;21.33;14.80;;;;;;;13.54;100.00;101611.31;4952022;28;20536;-69
2022/10/29 09:24:54;;;;;;;21.63;15.55;;;;;;;13.83;100.00;101600.41;4951739;28;20043;-68
2022/10/29 09:27:28;;;;;;;29.92;16.83;;;;;;;13.85;100.00;101585.81;4951608;28;20041;-69
2022/10/29 09:30:15;;;;;;;25.20;15.60;;;;;;;14.02;100.00;101597.75;4951580;28;20039;-69
2022/10/29 09:32:57;;;;;;;22.83;14.75;;;;;;;13.87;100.00;101597.16;4951348;28;20441;-69
2022/10/29 09:35:36;;;;;;;24.60;16.33;;;;;;;14.08;100.00;101599.72;4951657;28;20417;-69
2022/10/29 09:38:11;;;;;;;29.00;17.27;;;;;;;14.38;100.00;101588.78;4951429;28;20039;-69
2022/10/29 09:40:39;;;;;;;31.83;18.48;;;;;;;14.39;100.00;101565.47;4950719;28;20126;-68
2022/10/29 09:43:18;;;;;;;27.00;17.50;;;;;;;14.63;100.00;101580.25;4951428;28;20043;-69
2022/10/29 09:46:05;;;;;;;28.67;17.73;;;;;;;14.83;100.00;101573.22;4951271;28;20038;-69
2022/10/29 09:48:37;;;;;;;25.60;17.23;;;;;;;15.07;100.00;101571.47;4930956;29;20071;-69
2022/10/29 09:51:40;;;;;;;22.23;14.57;;;;;;;15.19;100.00;101565.00;4932405;29;20070;-69
2022/10/29 09:54:06;;;;;;;24.17;16.00;;;;;;;15.17;99.00;101524.16;4932020;29;20043;-69
2022/10/29 09:56:31;;;;;;;29.67;16.02;;;;;;;15.61;97.74;101558.59;4932035;29;20031;-69
2022/10/29 09:59:11;;;;;;;27.63;16.30;;;;;;;15.79;97.31;101554.88;4964496;28;20066;-69
2022/10/29 10:01:36;;;;;;;;;;;;;;;15.95;95.82;101554.56;4990331;28;20026;-69
2022/10/29 10:04:14;;;;;;;22.60;14.48;;;;;;;15.95;95.90;101527.63;4989696;28;19913;-69
2022/10/29 10:07:04;;;;;;;22.58;14.02;;;;;;;16.25;94.15;101537.22;4989825;28;20075;-67
2022/10/29 10:09:51;;;;;;;26.60;14.52;;;;;;;16.38;93.32;101504.63;5010147;28;20072;-69
2022/10/29 10:12:17;;;;;;;24.13;16.70;;;;;;;16.57;91.84;101519.06;5022059;28;20084;-70
2022/10/29 10:14:42;;;;;;;25.83;17.20;;;;;;;16.65;91.63;101523.66;5022008;28;20038;-70
2022/10/29 10:17:08;;;;;;;27.88;17.80;;;;;;;16.67;90.97;101487.19;4992181;28;20068;-69
2022/10/29 10:19:42;;;;;;;27.08;16.08;;;;;;;16.91;89.88;101505.31;5011203;28;20045;-70
2022/10/29 10:22:18;;;;;;;21.40;15.38;;;;;;;17.03;89.74;101498.66;5012166;28;20120;-70
2022/10/29 10:24:43;;;;;;;24.30;16.13;;;;;;;17.08;88.82;101487.47;5016685;28;20068;-70
2022/10/29 10:27:18;;;;;;;22.20;14.52;;;;;;;17.14;87.90;101490.25;5010751;28;20026;-69
2022/10/29 10:30:03;;;;;;;25.55;15.25;;;;;;;17.28;87.97;101497.56;5013020;28;20030;-70
2022/10/29 10:32:30;;;;;;;23.05;15.07;;;;;;;17.41;87.03;101486.59;5010481;28;20042;-70
2022/10/29 10:34:55;;;;;;;22.27;14.60;;;;;;;17.52;86.80;101479.03;5028602;28;20112;-67
2022/10/29 10:37:21;;;;;;;25.42;16.15;;;;;;;17.72;85.51;101478.63;5030328;28;20044;-70
2022/10/29 10:40:04;;;;;;;21.95;15.13;;;;;;;17.85;83.94;101465.00;5042589;28;20414;-70
2022/10/29 10:42:35;;;;;;;24.83;15.82;;;;;;;17.91;84.81;101462.53;4962824;28;20123;-67
2022/10/29 10:45:13;;;;;;;28.67;16.80;;;;;;;17.97;83.41;101456.63;5020202;28;20025;-66
2022/10/29 10:47:44;;;;;;;23.63;15.40;;;;;;;18.00;83.81;101447.97;5030077;28;20044;-70
2022/10/29 10:50:09;;;;;;;27.33;15.57;;;;;;;17.90;82.81;101408.50;5024554;28;20037;-69
2022/10/29 10:52:35;;;;;;;23.33;15.27;;;;;;;18.23;83.11;101441.50;5030572;28;20021;-67
2022/10/29 10:55:15;;;;;;;22.15;14.77;;;;;;;18.32;80.79;101430.34;5029415;28;20025;-67
2022/10/29 10:57:48;;;;;;;24.23;14.05;;;;;;;18.39;80.55;101431.34;5030412;28;20139;-67
2022/10/29 11:00:21;;;;;;;22.67;14.38;;;;;;;18.42;80.35;101406.13;5030133;28;20044;-67
2022/10/29 11:03:09;;;;;;;19.70;12.43;;;;;;;18.68;80.39;101417.94;5029333;28;20026;-67
2022/10/29 11:06:04;;;;;;;18.13;11.90;;;;;;;18.54;80.66;101431.66;4985043;28;20547;-67
2022/10/29 11:08:36;;;;;;;18.30;12.32;;;;;;;18.24;79.31;101367.47;4949302;28;20052;-70
2022/10/29 11:11:10;;;;;;;20.23;12.20;;;;;;;18.70;78.75;101419.72;4949799;28;20047;-68
2022/10/29 11:13:39;;;;;;;37.20;12.23;;;;;;;18.80;78.75;101418.16;4949708;28;20524;-67
2022/10/29 11:16:30;;;;;;;16.88;11.07;;;;;;;18.83;77.67;101419.97;4949575;28;20050;-67
2022/10/29 11:19:10;;;;;;;21.40;12.23;;;;;;;18.77;75.89;101399.81;4949302;28;20051;-68
2022/10/29 11:21:43;;;;;;;19.88;11.75;;;;;;;19.01;74.17;101411.59;4934479;28;20516;-67
2022/10/29 11:24:17;;;;;;;23.63;11.82;;;;;;;19.14;73.38;101402.22;4917404;29;20040;-68